createdAt,value
2022-10-08T00:00:31.591Z,14.00
2022-10-08T00:01:35.169Z,13.25
2022-10-08T00:02:37.755Z,14.65
2022-10-08T00:03:43.767Z,13.27
2022-10-08T00:04:46.490Z,13.18
2022-10-08T00:06:03.521Z,12.90
2022-10-08T00:07:06.004Z,14.20
2022-10-08T00:08:09.357Z,13.80
2022-10-08T00:09:11.955Z,12.13
2022-10-08T00:10:14.331Z,13.27
2022-10-08T00:11:21.415Z,13.18
2022-10-08T00:12:23.910Z,13.65
2022-10-08T00:13:29.493Z,13.85
2022-10-08T00:14:31.948Z,13.82
2022-10-08T00:15:37.238Z,15.82
2022-10-08T00:16:41.803Z,14.40
2022-10-08T00:17:44.236Z,16.33
2022-10-08T00:18:49.011Z,16.77
2022-10-08T00:19:54.395Z,15.93
2022-10-08T00:21:10.043Z,16.35
2022-10-08T00:22:12.426Z,15.18
2022-10-08T00:23:14.954Z,16.27
2022-10-08T00:24:18.842Z,15.35
2022-10-08T00:25:21.787Z,14.43
2022-10-08T00:26:26.764Z,15.13
2022-10-08T00:27:29.588Z,15.60
2022-10-08T00:28:32.161Z,15.63
2022-10-08T00:29:34.608Z,15.82
2022-10-08T00:30:41.361Z,16.48
2022-10-08T00:31:46.090Z,16.85
2022-10-08T00:32:49.243Z,16.08
2022-10-08T00:33:55.864Z,16.35
2022-10-08T00:34:58.711Z,15.90
2022-10-08T00:36:02.479Z,14.98
2022-10-08T00:37:04.929Z,15.38
2022-10-08T00:38:08.003Z,14.85
2022-10-08T00:39:16.180Z,14.68
2022-10-08T00:40:18.880Z,14.63
2022-10-08T00:41:25.316Z,15.23
2022-10-08T00:42:27.888Z,14.93
2022-10-08T00:43:45.557Z,14.02
2022-10-08T00:44:51.755Z,14.15
2022-10-08T00:45:54.370Z,14.00
2022-10-08T00:46:56.910Z,15.45
2022-10-08T00:47:59.425Z,14.02
2022-10-08T00:49:13.983Z,13.95
2022-10-08T00:50:25.453Z,14.00
2022-10-08T00:51:28.315Z,15.10
2022-10-08T00:52:36.209Z,14.68
2022-10-08T00:53:38.796Z,13.15
2022-10-08T00:54:41.650Z,14.05
2022-10-08T00:55:45.327Z,14.65
2022-10-08T00:56:53.716Z,13.68
2022-10-08T00:58:01.420Z,13.75
2022-10-08T00:59:04.997Z,14.00
2022-10-08T01:00:14.854Z,13.70
2022-10-08T01:01:17.814Z,14.23
2022-10-08T01:02:20.712Z,13.13
2022-10-08T01:03:23.283Z,14.38
2022-10-08T01:04:25.730Z,13.45
2022-10-08T01:05:39.610Z,13.63
2022-10-08T01:06:54.276Z,13.77
2022-10-08T01:08:11.118Z,13.07
2022-10-08T01:09:19.915Z,13.00
2022-10-08T01:10:53.180Z,13.75
2022-10-08T01:12:01.469Z,13.57
2022-10-08T01:13:06.508Z,14.73
2022-10-08T01:14:21.223Z,13.77
2022-10-08T01:15:34.005Z,13.05
2022-10-08T01:16:40.683Z,13.85
2022-10-08T01:18:00.786Z,12.85
2022-10-08T01:19:12.022Z,13.90
2022-10-08T01:20:42.351Z,13.90
2022-10-08T01:22:09.196Z,13.63
2022-10-08T01:23:27.111Z,12.68
2022-10-08T01:25:17.703Z,13.55
2022-10-08T01:26:23.320Z,13.25
2022-10-08T01:27:39.054Z,14.02
2022-10-08T01:28:52.017Z,14.13
2022-10-08T01:29:56.261Z,13.82
2022-10-08T01:31:07.445Z,13.05
2022-10-08T01:32:16.267Z,14.20
2022-10-08T01:33:25.411Z,12.07
2022-10-08T01:34:41.518Z,13.05
2022-10-08T01:35:51.760Z,12.77
2022-10-08T01:36:57.011Z,13.50
2022-10-08T01:38:03.716Z,12.50
2022-10-08T01:39:11.928Z,11.98
2022-10-08T01:40:20.585Z,12.68
2022-10-08T01:41:28.879Z,12.45
2022-10-08T01:42:33.672Z,13.38
2022-10-08T01:43:41.654Z,13.43
2022-10-08T01:44:49.594Z,13.52
2022-10-08T01:45:57.634Z,12.48
2022-10-08T01:47:04.201Z,13.05
2022-10-08T01:48:12.531Z,13.00
2022-10-08T01:49:22.953Z,12.98
2022-10-08T01:51:43.219Z,12.50
2022-10-08T01:52:53.298Z,11.63
2022-10-08T01:53:56.483Z,12.95
2022-10-08T01:55:02.514Z,12.23
2022-10-08T01:56:10.674Z,11.98
2022-10-08T01:57:13.442Z,12.68
2022-10-08T01:58:31.476Z,11.65
2022-10-08T01:59:42.566Z,11.80
2022-10-08T02:00:47.670Z,12.10
2022-10-08T02:01:59.098Z,11.25
2022-10-08T02:03:02.258Z,12.10
2022-10-08T02:04:43.555Z,13.25
2022-10-08T02:06:05.826Z,12.25
2022-10-08T02:07:16.245Z,11.93
2022-10-08T02:08:18.958Z,11.30
2022-10-08T02:09:23.130Z,12.07
2022-10-08T02:10:26.888Z,11.55
2022-10-08T02:11:29.327Z,12.38
2022-10-08T02:12:31.811Z,11.60
2022-10-08T02:13:34.220Z,12.52
2022-10-08T02:14:39.459Z,12.00
2022-10-08T02:15:53.744Z,12.45
2022-10-08T02:17:03.576Z,11.02
2022-10-08T02:18:15.221Z,11.43
2022-10-08T02:19:33.456Z,11.68
2022-10-08T02:20:47.897Z,11.55
2022-10-08T02:21:52.926Z,11.70
2022-10-08T02:23:25.915Z,12.50
2022-10-08T02:24:39.681Z,11.23
2022-10-08T02:26:04.288Z,12.60
2022-10-08T02:27:09.595Z,11.10
2022-10-08T02:28:39.536Z,10.90
2022-10-08T02:30:05.187Z,10.55
2022-10-08T02:31:16.253Z,10.63
2022-10-08T02:32:23.935Z,11.40
2022-10-08T02:33:50.599Z,11.15
2022-10-08T02:35:25.607Z,11.00
2022-10-08T02:36:34.347Z,10.82
2022-10-08T02:37:46.802Z,11.30
2022-10-08T02:38:59.007Z,11.27
2022-10-08T02:40:10.117Z,11.05
2022-10-08T02:41:17.324Z,11.68
2022-10-08T02:42:23.324Z,12.07
2022-10-08T02:43:31.975Z,12.57
2022-10-08T02:44:40.461Z,10.27
2022-10-08T02:45:53.280Z,11.00
2022-10-08T02:46:59.639Z,10.98
2022-10-08T02:48:08.809Z,10.40
2022-10-08T02:49:18.104Z,10.98
2022-10-08T02:50:25.683Z,11.50
2022-10-08T02:51:29.711Z,11.15
2022-10-08T02:52:37.398Z,10.88
2022-10-08T02:53:43.119Z,11.50
2022-10-08T02:54:47.132Z,11.27
2022-10-08T02:56:11.437Z,11.32
2022-10-08T02:57:20.033Z,10.25
2022-10-08T02:58:22.562Z,10.88
2022-10-08T02:59:27.589Z,10.85
2022-10-08T03:00:36.139Z,10.75
2022-10-08T03:01:50.627Z,11.63
2022-10-08T03:02:58.825Z,11.52
2022-10-08T03:04:06.719Z,11.60
2022-10-08T03:05:17.050Z,10.68
2022-10-08T03:06:20.344Z,11.40
2022-10-08T03:07:24.711Z,11.68
2022-10-08T03:08:27.392Z,12.93
2022-10-08T03:09:35.596Z,12.40
2022-10-08T03:10:40.502Z,12.43
2022-10-08T03:11:43.364Z,11.98
2022-10-08T03:12:46.303Z,12.30
2022-10-08T03:13:50.192Z,12.52
2022-10-08T03:14:52.768Z,12.30
2022-10-08T03:15:56.475Z,12.38
2022-10-08T03:16:59.058Z,11.38
2022-10-08T03:18:03.842Z,12.35
2022-10-08T03:19:08.200Z,12.25
2022-10-08T03:20:12.705Z,11.20
2022-10-08T03:21:16.079Z,11.90
2022-10-08T03:22:21.090Z,13.05
2022-10-08T03:23:26.403Z,13.25
2022-10-08T03:24:29.109Z,12.32
2022-10-08T03:25:32.810Z,12.75
2022-10-08T03:26:36.848Z,13.13
2022-10-08T03:27:39.435Z,12.57
2022-10-08T03:28:42.011Z,12.50
2022-10-08T03:29:44.402Z,12.65
2022-10-08T03:30:47.952Z,13.45
2022-10-08T03:31:51.186Z,12.63
2022-10-08T03:32:53.636Z,12.05
2022-10-08T03:33:56.493Z,12.13
2022-10-08T03:34:58.956Z,12.63
2022-10-08T03:36:01.659Z,12.20
2022-10-08T03:37:03.981Z,11.00
2022-10-08T03:38:06.394Z,11.10
2022-10-08T03:39:11.633Z,11.88
2022-10-08T03:40:14.154Z,11.50
2022-10-08T03:41:17.493Z,11.15
2022-10-08T03:42:19.885Z,11.40
2022-10-08T03:43:22.694Z,11.98
2022-10-08T03:44:27.265Z,11.18
2022-10-08T03:45:29.619Z,11.85
2022-10-08T03:46:35.563Z,12.15
2022-10-08T03:47:38.477Z,11.68
2022-10-08T03:48:41.896Z,12.43
2022-10-08T03:49:44.229Z,12.68
2022-10-08T03:50:58.710Z,12.15
2022-10-08T03:52:03.774Z,13.50
2022-10-08T03:53:06.022Z,13.18
2022-10-08T03:54:08.589Z,13.10
2022-10-08T03:55:10.986Z,12.95
2022-10-08T03:56:16.865Z,12.82
2022-10-08T03:57:19.740Z,13.75
2022-10-08T03:58:22.191Z,13.02
2022-10-08T03:59:24.600Z,13.23
2022-10-08T04:00:26.996Z,13.00
2022-10-08T04:01:29.819Z,13.50
2022-10-08T04:02:34.149Z,12.73
2022-10-08T04:03:36.689Z,12.85
2022-10-08T04:04:39.077Z,13.57
2022-10-08T04:05:49.298Z,13.57
2022-10-08T04:06:51.749Z,13.55
2022-10-08T04:07:54.277Z,14.35
2022-10-08T04:09:01.227Z,14.57
2022-10-08T04:10:04.128Z,13.05
2022-10-08T04:11:09.091Z,15.18
2022-10-08T04:12:11.597Z,13.55
2022-10-08T04:13:16.943Z,14.63
2022-10-08T04:14:19.437Z,13.82
2022-10-08T04:15:21.840Z,15.02
2022-10-08T04:17:28.702Z,14.23
2022-10-08T04:18:31.899Z,13.63
2022-10-08T04:19:34.284Z,14.93
2022-10-08T04:20:39.640Z,14.70
2022-10-08T04:21:42.241Z,14.50
2022-10-08T04:22:44.856Z,14.13
2022-10-08T04:23:50.273Z,14.55
2022-10-08T04:24:57.158Z,14.55
2022-10-08T04:25:59.786Z,13.45
2022-10-08T04:27:02.235Z,13.55
2022-10-08T04:28:05.449Z,15.52
2022-10-08T04:29:08.534Z,16.85
2022-10-08T04:30:11.320Z,15.48
2022-10-08T04:31:19.121Z,15.30
2022-10-08T04:32:21.714Z,15.70
2022-10-08T04:33:24.764Z,16.13
2022-10-08T04:34:28.107Z,15.82
2022-10-08T04:35:30.907Z,15.52
2022-10-08T04:36:33.748Z,15.82
2022-10-08T04:37:36.511Z,15.90
2022-10-08T04:38:39.100Z,15.27
2022-10-08T04:39:41.900Z,16.63
2022-10-08T04:40:44.926Z,16.70
2022-10-08T04:41:48.417Z,16.27
2022-10-08T04:42:52.264Z,14.77
2022-10-08T04:43:58.608Z,14.85
2022-10-08T04:45:01.067Z,14.77
2022-10-08T04:46:04.690Z,13.80
2022-10-08T04:47:07.258Z,14.23
2022-10-08T04:48:10.019Z,14.20
2022-10-08T04:49:12.933Z,14.18
2022-10-08T04:50:15.731Z,14.95
2022-10-08T04:51:24.772Z,15.77
2022-10-08T04:52:27.304Z,15.55
2022-10-08T04:53:30.219Z,16.10
2022-10-08T04:54:32.699Z,15.93
2022-10-08T04:55:35.140Z,17.65
2022-10-08T04:56:37.552Z,20.60
2022-10-08T04:57:39.965Z,20.25
2022-10-08T04:58:42.723Z,22.90
2022-10-08T05:00:05.830Z,23.55
2022-10-08T05:01:10.365Z,23.77
2022-10-08T05:02:12.929Z,21.85
2022-10-08T05:03:15.316Z,22.90
2022-10-08T05:04:17.882Z,22.73
2022-10-08T05:05:20.348Z,22.95
2022-10-08T05:06:25.801Z,21.77
2022-10-08T05:07:29.650Z,21.58
2022-10-08T05:08:32.391Z,20.10
2022-10-08T05:09:34.947Z,20.58
2022-10-08T05:10:37.375Z,20.38
2022-10-08T05:11:39.893Z,19.52
2022-10-08T05:12:44.657Z,19.35
2022-10-08T05:13:51.763Z,18.42
2022-10-08T05:15:01.607Z,18.05
2022-10-08T05:16:31.036Z,16.63
2022-10-08T05:17:38.597Z,16.25
2022-10-08T05:18:42.449Z,15.90
2022-10-08T05:19:45.267Z,16.83
2022-10-08T05:20:47.675Z,15.88
2022-10-08T05:21:50.252Z,15.75
2022-10-08T05:22:52.541Z,15.88
2022-10-08T05:24:03.359Z,14.93
2022-10-08T05:25:07.504Z,15.23
2022-10-08T05:26:18.467Z,14.00
2022-10-08T05:27:20.918Z,13.10
2022-10-08T05:28:23.477Z,14.07
2022-10-08T05:29:28.615Z,13.73
2022-10-08T05:30:31.325Z,13.50
2022-10-08T05:31:36.160Z,14.05
2022-10-08T05:32:38.722Z,14.98
2022-10-08T05:33:41.643Z,14.25
2022-10-08T05:34:44.511Z,14.07
2022-10-08T05:35:47.056Z,12.85
2022-10-08T05:36:49.548Z,13.20
2022-10-08T05:37:52.034Z,12.93
2022-10-08T05:38:56.577Z,13.02
2022-10-08T05:39:59.582Z,13.73
2022-10-08T05:41:10.421Z,14.45
2022-10-08T05:42:13.369Z,12.88
2022-10-08T05:43:15.901Z,14.05
2022-10-08T05:44:18.309Z,14.38
2022-10-08T05:45:20.844Z,13.95
2022-10-08T05:46:28.835Z,14.20
2022-10-08T05:47:33.541Z,13.68
2022-10-08T05:48:36.576Z,13.50
2022-10-08T05:49:40.747Z,12.80
2022-10-08T05:50:43.186Z,13.65
2022-10-08T05:51:45.648Z,12.63
2022-10-08T05:52:48.360Z,12.57
2022-10-08T05:55:05.312Z,12.10
2022-10-08T05:56:11.939Z,12.15
2022-10-08T05:57:16.832Z,11.80
2022-10-08T05:58:19.326Z,11.82
2022-10-08T05:59:23.916Z,11.93
2022-10-08T06:00:26.743Z,12.35
2022-10-08T06:01:32.490Z,12.23
2022-10-08T06:02:34.951Z,12.23
2022-10-08T06:03:41.431Z,11.60
2022-10-08T06:04:49.551Z,11.13
2022-10-08T06:05:52.466Z,11.20
2022-10-08T06:06:55.230Z,10.75
2022-10-08T06:08:00.167Z,12.93
2022-10-08T06:09:05.909Z,10.38
2022-10-08T06:10:09.007Z,10.57
2022-10-08T06:11:11.443Z,11.25
2022-10-08T06:12:22.710Z,10.57
2022-10-08T06:13:35.611Z,10.85
2022-10-08T06:14:37.987Z,10.80
2022-10-08T06:15:40.426Z,9.70
2022-10-08T06:16:43.769Z,9.90
2022-10-08T06:17:51.093Z,10.73
2022-10-08T06:18:54.162Z,9.45
2022-10-08T06:19:56.690Z,9.65
2022-10-08T06:21:08.924Z,9.73
2022-10-08T06:22:11.373Z,10.50
2022-10-08T06:23:13.913Z,9.30
2022-10-08T06:24:16.441Z,10.65
2022-10-08T06:25:18.946Z,10.15
2022-10-08T06:26:23.698Z,10.07
2022-10-08T06:27:26.257Z,11.32
2022-10-08T06:28:28.932Z,10.25
2022-10-08T06:29:31.506Z,10.25
2022-10-08T06:30:34.001Z,9.75
2022-10-08T06:31:36.753Z,9.85
2022-10-08T06:32:39.329Z,12.13
2022-10-08T06:33:41.974Z,10.70
2022-10-08T06:34:44.429Z,10.77
2022-10-08T06:35:46.969Z,9.93
2022-10-08T06:36:49.401Z,10.63
2022-10-08T06:37:52.002Z,11.55
2022-10-08T06:39:08.186Z,11.07
2022-10-08T06:40:10.715Z,12.07
2022-10-08T06:41:13.231Z,10.77
2022-10-08T06:42:16.773Z,10.90
2022-10-08T06:43:20.354Z,11.13
2022-10-08T06:44:23.005Z,10.27
2022-10-08T06:45:25.602Z,10.82
2022-10-08T06:46:34.053Z,11.30
2022-10-08T06:47:37.962Z,10.63
2022-10-08T06:48:40.815Z,10.05
2022-10-08T06:49:43.170Z,10.82
2022-10-08T06:50:46.146Z,10.55
2022-10-08T06:51:48.577Z,10.80
2022-10-08T06:52:51.583Z,10.30
2022-10-08T06:53:59.413Z,12.70
2022-10-08T06:55:04.433Z,10.00
2022-10-08T06:56:10.983Z,10.63
2022-10-08T06:57:13.572Z,11.07
2022-10-08T06:58:17.438Z,10.75
2022-10-08T06:59:22.287Z,10.95
2022-10-08T07:00:25.052Z,10.25
2022-10-08T07:01:33.352Z,12.88
2022-10-08T07:03:40.290Z,10.13
2022-10-08T07:04:46.187Z,10.85
2022-10-08T07:05:48.594Z,10.32
2022-10-08T07:06:51.071Z,10.98
2022-10-08T07:07:53.675Z,10.90
2022-10-08T07:08:59.416Z,11.95
2022-10-08T07:10:03.992Z,11.23
2022-10-08T07:11:08.558Z,10.82
2022-10-08T07:12:10.900Z,11.32
2022-10-08T07:13:13.374Z,10.68
2022-10-08T07:14:22.337Z,10.45
2022-10-08T07:15:25.279Z,10.73
2022-10-08T07:16:28.743Z,10.05
2022-10-08T07:17:31.684Z,10.93
2022-10-08T07:18:35.475Z,10.30
2022-10-08T07:19:38.981Z,10.15
2022-10-08T07:20:41.653Z,10.10
2022-10-08T07:21:44.258Z,10.02
2022-10-08T07:22:46.920Z,10.15
2022-10-08T07:23:50.012Z,9.90
2022-10-08T07:24:52.693Z,9.88
2022-10-08T07:26:03.808Z,9.73
2022-10-08T07:27:06.605Z,11.38
2022-10-08T07:28:11.528Z,11.25
2022-10-08T07:29:15.093Z,9.90
2022-10-08T07:30:17.752Z,10.43
2022-10-08T07:31:23.247Z,10.10
2022-10-08T07:32:26.485Z,10.35
2022-10-08T07:33:29.539Z,10.45
2022-10-08T07:34:32.032Z,10.40
2022-10-08T07:35:39.048Z,10.00
2022-10-08T07:36:50.162Z,10.27
2022-10-08T07:37:53.251Z,9.57
2022-10-08T07:38:57.850Z,10.43
2022-10-08T07:40:00.277Z,10.15
2022-10-08T07:41:02.917Z,8.95
2022-10-08T07:42:05.651Z,8.80
2022-10-08T07:43:08.157Z,9.27
2022-10-08T07:44:12.368Z,8.52
2022-10-08T07:45:15.055Z,8.95
2022-10-08T07:46:17.711Z,9.65
2022-10-08T07:47:20.024Z,8.10
2022-10-08T07:48:22.819Z,8.73
2022-10-08T07:49:28.281Z,9.30
2022-10-08T07:50:33.793Z,9.27
2022-10-08T07:51:36.565Z,9.20
2022-10-08T07:52:39.087Z,8.98
2022-10-08T07:53:42.519Z,10.00
2022-10-08T07:54:45.601Z,10.00
2022-10-08T07:55:48.109Z,9.98
2022-10-08T07:56:50.620Z,9.98
2022-10-08T07:57:53.108Z,10.27
2022-10-08T07:59:02.843Z,9.23
2022-10-08T08:00:06.028Z,10.45
2022-10-08T08:01:22.006Z,9.30
2022-10-08T08:02:24.510Z,9.02
2022-10-08T08:03:27.495Z,9.77
2022-10-08T08:04:32.878Z,9.65
2022-10-08T08:05:35.542Z,9.55
2022-10-08T08:06:41.407Z,8.73
2022-10-08T08:07:44.477Z,9.05
2022-10-08T08:08:50.443Z,9.93
2022-10-08T08:09:52.978Z,7.60
2022-10-08T08:10:59.745Z,8.23
2022-10-08T08:12:02.227Z,7.80
2022-10-08T08:13:05.808Z,7.78
2022-10-08T08:14:08.499Z,8.05
2022-10-08T08:15:11.247Z,7.78
2022-10-08T08:16:19.618Z,8.00
2022-10-08T08:17:22.672Z,8.00
2022-10-08T08:18:28.161Z,8.15
2022-10-08T08:19:32.743Z,7.15
2022-10-08T08:20:35.232Z,7.70
2022-10-08T08:21:39.312Z,8.00
2022-10-08T08:22:41.629Z,6.85
2022-10-08T08:23:47.590Z,7.05
2022-10-08T08:24:50.517Z,7.30
2022-10-08T08:25:52.957Z,7.32
2022-10-08T08:26:57.695Z,7.40
2022-10-08T08:28:00.361Z,7.50
2022-10-08T08:29:13.783Z,7.95
2022-10-08T08:30:16.184Z,8.63
2022-10-08T08:31:21.939Z,7.32
2022-10-08T08:32:28.425Z,8.40
2022-10-08T08:33:31.138Z,6.55
2022-10-08T08:34:33.692Z,6.25
2022-10-08T08:35:36.091Z,6.57
2022-10-08T08:36:41.226Z,6.60
2022-10-08T08:37:45.934Z,7.78
2022-10-08T08:38:48.467Z,6.72
2022-10-08T08:39:51.334Z,7.05
2022-10-08T08:41:12.773Z,7.15
2022-10-08T08:42:45.928Z,6.65
2022-10-08T08:44:19.050Z,6.20
2022-10-08T08:45:46.539Z,5.40
2022-10-08T08:47:06.379Z,3.83
2022-10-08T08:48:29.153Z,4.50
2022-10-08T08:49:31.579Z,4.75
2022-10-08T08:50:37.317Z,4.15
2022-10-08T08:51:40.531Z,4.80
2022-10-08T08:52:46.755Z,4.57
2022-10-08T08:53:49.487Z,5.28
2022-10-08T08:54:53.645Z,4.63
2022-10-08T08:56:00.072Z,4.70
2022-10-08T08:57:36.430Z,5.32
2022-10-08T08:58:58.825Z,5.07
2022-10-08T09:00:19.734Z,5.50
2022-10-08T09:01:43.996Z,6.13
2022-10-08T09:03:26.773Z,5.60
2022-10-08T09:04:46.464Z,5.47
2022-10-08T09:05:56.783Z,6.03
2022-10-08T09:07:02.179Z,5.72
2022-10-08T09:08:16.290Z,5.65
2022-10-08T09:09:32.485Z,5.38
2022-10-08T09:10:43.143Z,5.40
2022-10-08T09:11:45.708Z,4.85
2022-10-08T09:12:51.339Z,4.68
2022-10-08T09:14:00.528Z,5.07
2022-10-08T09:15:17.242Z,5.22
2022-10-08T09:16:19.965Z,5.32
2022-10-08T09:17:31.418Z,6.05
2022-10-08T09:18:33.904Z,5.35
2022-10-08T09:19:40.451Z,5.70
2022-10-08T09:20:44.257Z,5.72
2022-10-08T09:21:46.805Z,7.18
2022-10-08T09:22:50.928Z,5.75
2022-10-08T09:23:53.318Z,5.40
2022-10-08T09:25:01.421Z,6.60
2022-10-08T09:26:24.588Z,6.28
2022-10-08T09:27:44.280Z,6.78
2022-10-08T09:28:47.493Z,6.43
2022-10-08T09:29:50.066Z,5.82
2022-10-08T09:30:53.033Z,5.93
2022-10-08T09:31:57.189Z,6.30
2022-10-08T09:33:16.490Z,6.43
2022-10-08T09:34:20.246Z,5.78
2022-10-08T09:36:39.826Z,5.97
2022-10-08T09:37:46.737Z,5.70
2022-10-08T09:38:58.771Z,5.70
2022-10-08T09:40:13.877Z,5.22
2022-10-08T09:41:22.219Z,6.03
2022-10-08T09:42:24.856Z,5.75
2022-10-08T09:43:27.346Z,5.22
2022-10-08T09:44:41.692Z,5.47
2022-10-08T09:45:46.843Z,5.35
2022-10-08T09:47:04.191Z,5.43
2022-10-08T09:48:26.759Z,5.22
2022-10-08T09:49:51.897Z,4.88
2022-10-08T09:50:57.103Z,4.53
2022-10-08T09:54:57.687Z,5.65
2022-10-08T09:56:06.526Z,5.03
2022-10-08T09:57:17.303Z,5.03
2022-10-08T09:58:21.063Z,4.70
2022-10-08T09:59:26.684Z,5.20
2022-10-08T10:00:33.258Z,4.60
2022-10-08T10:01:35.770Z,5.10
2022-10-08T10:02:38.918Z,5.38
2022-10-08T10:03:49.726Z,4.60
2022-10-08T10:04:55.260Z,4.68
2022-10-08T10:05:59.407Z,4.60
2022-10-08T10:07:03.252Z,4.82
2022-10-08T10:08:05.724Z,4.63
2022-10-08T10:09:39.133Z,4.80
2022-10-08T10:10:48.825Z,4.68
2022-10-08T10:12:03.201Z,4.80
2022-10-08T10:13:12.472Z,5.00
2022-10-08T10:14:36.606Z,4.78
2022-10-08T10:15:50.877Z,4.93
2022-10-08T10:17:02.097Z,4.45
2022-10-08T10:18:32.071Z,5.07
2022-10-08T10:19:44.576Z,4.60
2022-10-08T10:20:54.136Z,4.95
2022-10-08T10:22:21.448Z,5.22
2022-10-08T10:23:36.433Z,4.75
2022-10-08T10:24:45.988Z,4.60
2022-10-08T10:25:53.752Z,4.93
2022-10-08T10:27:05.770Z,5.47
2022-10-08T10:28:21.957Z,5.15
2022-10-08T10:29:29.632Z,4.68
2022-10-08T10:30:42.787Z,5.07
2022-10-08T10:32:14.597Z,4.15
2022-10-08T10:33:28.178Z,4.82
2022-10-08T10:34:35.947Z,4.18
2022-10-08T10:35:48.312Z,4.70
2022-10-08T10:37:02.386Z,4.32
2022-10-08T10:38:15.012Z,4.95
2022-10-08T10:39:35.386Z,4.00
2022-10-08T10:40:47.274Z,4.55
2022-10-08T10:42:15.106Z,4.30
2022-10-08T10:43:53.883Z,4.97
2022-10-08T10:45:14.555Z,4.15
2022-10-08T10:46:25.444Z,4.30
2022-10-08T10:47:35.657Z,4.25
2022-10-08T10:49:42.730Z,4.68
2022-10-08T10:51:07.934Z,4.70
2022-10-08T10:52:34.264Z,5.05
2022-10-08T10:53:56.272Z,4.63
2022-10-08T10:55:20.404Z,4.95
2022-10-08T10:56:25.840Z,5.00
2022-10-08T10:57:44.476Z,5.13
2022-10-08T10:59:11.226Z,4.65
2022-10-08T11:00:23.960Z,4.65
2022-10-08T11:02:14.025Z,4.30
2022-10-08T11:03:19.038Z,3.85
2022-10-08T11:04:59.458Z,3.90
2022-10-08T11:06:40.534Z,3.80
2022-10-08T11:08:04.500Z,4.05
2022-10-08T11:09:15.570Z,4.35
2022-10-08T11:10:39.266Z,4.53
2022-10-08T11:12:04.779Z,3.72
2022-10-08T11:13:44.603Z,3.72
2022-10-08T11:15:26.017Z,3.83
2022-10-08T11:16:43.406Z,4.65
2022-10-08T11:17:59.789Z,3.75
2022-10-08T11:20:42.815Z,3.95
2022-10-08T11:22:09.345Z,4.53
2022-10-08T11:23:22.790Z,4.80
2022-10-08T11:24:45.415Z,4.60
2022-10-08T11:26:15.437Z,6.22
2022-10-08T11:27:25.190Z,5.72
2022-10-08T11:28:59.871Z,4.82
2022-10-08T11:30:25.943Z,4.63
2022-10-08T11:31:47.049Z,5.40
2022-10-08T11:32:55.724Z,4.80
2022-10-08T11:33:58.695Z,4.78
2022-10-08T11:35:20.918Z,4.40
2022-10-08T11:36:38.715Z,5.00
2022-10-08T11:38:07.541Z,3.85
2022-10-08T11:39:28.409Z,4.00
2022-10-08T11:40:43.595Z,4.53
2022-10-08T11:41:54.458Z,4.22
2022-10-08T11:43:34.123Z,4.47
2022-10-08T11:44:37.650Z,4.00
2022-10-08T11:45:46.300Z,4.65
2022-10-08T11:46:48.697Z,3.92
2022-10-08T11:47:54.504Z,5.03
2022-10-08T11:49:16.739Z,4.90
2022-10-08T11:50:26.814Z,4.07
2022-10-08T11:51:34.951Z,4.32
2022-10-08T11:52:37.404Z,4.05
2022-10-08T11:53:39.959Z,4.22
2022-10-08T11:54:51.642Z,4.40
2022-10-08T11:55:59.594Z,4.43
2022-10-08T11:57:25.311Z,4.53
2022-10-08T11:58:33.414Z,4.10
2022-10-08T11:59:46.556Z,4.65
2022-10-08T12:00:51.514Z,4.97
2022-10-08T12:01:57.508Z,4.40
2022-10-08T12:03:02.740Z,4.30
2022-10-08T12:04:18.597Z,4.00
2022-10-08T12:05:23.813Z,4.57
2022-10-08T12:06:36.098Z,3.55
2022-10-08T12:07:47.970Z,4.10
2022-10-08T12:08:56.400Z,4.38
2022-10-08T12:10:08.131Z,4.30
2022-10-08T12:11:32.347Z,4.13
2022-10-08T12:12:50.048Z,3.80
2022-10-08T12:14:11.548Z,5.10
2022-10-08T12:15:25.615Z,4.13
2022-10-08T12:16:59.600Z,4.32
2022-10-08T12:18:10.667Z,4.75
2022-10-08T12:19:37.596Z,4.22
2022-10-08T12:20:42.603Z,4.65
2022-10-08T12:21:50.140Z,3.88
2022-10-08T12:23:09.503Z,4.30
2022-10-08T12:24:39.622Z,4.78
2022-10-08T12:25:49.313Z,4.60
2022-10-08T12:27:29.310Z,4.43
2022-10-08T12:28:35.733Z,4.38
2022-10-08T12:29:57.841Z,4.50
2022-10-08T12:31:23.604Z,5.13
2022-10-08T12:32:28.904Z,4.50
2022-10-08T12:33:31.338Z,5.00
2022-10-08T12:34:34.355Z,4.75
2022-10-08T12:36:15.253Z,4.78
2022-10-08T12:37:56.382Z,4.63
2022-10-08T12:41:34.882Z,4.07
2022-10-08T12:42:39.057Z,4.72
2022-10-08T12:43:57.743Z,4.35
2022-10-08T12:45:28.882Z,4.55
2022-10-08T12:46:52.798Z,4.95
2022-10-08T12:48:07.008Z,4.32
2022-10-08T12:49:35.123Z,4.13
2022-10-08T12:50:49.429Z,4.70
2022-10-08T12:52:12.697Z,4.85
2022-10-08T12:53:17.202Z,4.55
2022-10-08T12:54:25.602Z,4.72
2022-10-08T12:55:31.474Z,5.18
2022-10-08T12:56:39.060Z,4.88
2022-10-08T12:57:42.595Z,4.60
2022-10-08T12:58:47.429Z,4.45
2022-10-08T12:59:50.824Z,4.85
2022-10-08T13:00:57.714Z,4.95
2022-10-08T13:02:00.277Z,4.68
2022-10-08T13:03:06.456Z,4.47
2022-10-08T13:04:17.610Z,4.85
2022-10-08T13:05:23.037Z,4.20
2022-10-08T13:06:33.712Z,4.95
2022-10-08T13:07:37.571Z,4.70
2022-10-08T13:08:40.607Z,4.53
2022-10-08T13:09:44.903Z,5.07
2022-10-08T13:10:47.331Z,4.82
2022-10-08T13:11:55.496Z,4.93
2022-10-08T13:13:26.516Z,4.72
2022-10-08T13:14:31.615Z,4.45
2022-10-08T13:15:35.100Z,4.90
2022-10-08T13:16:47.889Z,4.95
2022-10-08T13:17:50.550Z,4.97
2022-10-08T13:19:12.481Z,4.68
2022-10-08T13:20:17.976Z,5.35
2022-10-08T13:21:38.439Z,5.18
2022-10-08T13:22:40.880Z,5.55
2022-10-08T13:23:44.616Z,5.22
2022-10-08T13:24:47.091Z,4.80
2022-10-08T13:25:49.563Z,4.90
2022-10-08T13:26:54.523Z,4.65
2022-10-08T13:28:10.206Z,4.57
2022-10-08T13:29:22.629Z,4.50
2022-10-08T13:30:29.069Z,4.78
2022-10-08T13:31:33.537Z,4.82
2022-10-08T13:32:38.544Z,4.65
2022-10-08T13:33:41.027Z,4.68
2022-10-08T13:34:48.584Z,4.45
2022-10-08T13:35:55.657Z,4.70
2022-10-08T13:37:01.642Z,5.20
2022-10-08T13:38:07.983Z,5.45
2022-10-08T13:39:23.009Z,4.50
2022-10-08T13:40:25.690Z,4.88
2022-10-08T13:41:27.963Z,4.63
2022-10-08T13:42:33.869Z,4.70
2022-10-08T13:43:36.450Z,4.90
2022-10-08T13:44:40.937Z,4.68
2022-10-08T13:45:43.277Z,4.28
2022-10-08T13:46:45.754Z,4.55
2022-10-08T13:47:48.728Z,4.80
2022-10-08T13:48:51.549Z,4.80
2022-10-08T13:50:00.463Z,4.70
2022-10-08T13:51:04.221Z,4.97
2022-10-08T13:52:09.595Z,4.80
2022-10-08T13:53:14.478Z,4.72
2022-10-08T13:54:22.939Z,4.97
2022-10-08T13:55:31.652Z,5.00
2022-10-08T13:56:33.970Z,4.95
2022-10-08T13:57:36.316Z,5.00
2022-10-08T13:58:38.774Z,4.93
2022-10-08T13:59:41.247Z,4.43
2022-10-08T14:00:44.711Z,4.90
2022-10-08T14:01:47.960Z,4.30
2022-10-08T14:02:51.895Z,4.90
2022-10-08T14:03:54.217Z,4.35
2022-10-08T14:04:56.848Z,4.70
2022-10-08T14:05:59.673Z,5.10
2022-10-08T14:07:03.278Z,4.60
2022-10-08T14:08:18.064Z,4.63
2022-10-08T14:09:24.240Z,5.10
2022-10-08T14:10:26.891Z,5.05
2022-10-08T14:11:30.801Z,4.93
2022-10-08T14:12:35.415Z,5.07
2022-10-08T14:13:37.665Z,5.72
2022-10-08T14:14:40.145Z,6.03
2022-10-08T14:15:43.095Z,5.55
2022-10-08T14:16:45.598Z,6.05
2022-10-08T14:17:50.785Z,5.68
2022-10-08T14:18:53.993Z,5.40
2022-10-08T14:19:59.041Z,5.78
2022-10-08T14:21:01.432Z,4.80
2022-10-08T14:22:03.959Z,5.40
2022-10-08T14:23:06.321Z,5.13
2022-10-08T14:24:08.598Z,4.80
2022-10-08T14:25:21.212Z,5.35
2022-10-08T14:26:23.625Z,5.47
2022-10-08T14:27:26.023Z,5.03
2022-10-08T14:28:28.625Z,5.38
2022-10-08T14:29:35.656Z,5.55
2022-10-08T14:30:38.096Z,5.43
2022-10-08T14:31:40.527Z,5.18
2022-10-08T14:32:43.638Z,5.68
2022-10-08T14:33:46.371Z,5.00
2022-10-08T14:34:48.815Z,4.93
2022-10-08T14:35:53.336Z,5.38
2022-10-08T14:36:56.051Z,4.75
2022-10-08T14:37:58.552Z,5.57
2022-10-08T14:39:00.995Z,5.53
2022-10-08T14:40:05.385Z,5.53
2022-10-08T14:41:08.202Z,5.72
2022-10-08T14:42:10.594Z,5.45
2022-10-08T14:43:12.913Z,5.53
2022-10-08T14:44:16.940Z,6.20
2022-10-08T14:45:19.544Z,5.63
2022-10-08T14:46:22.133Z,5.97
2022-10-08T14:47:24.554Z,5.53
2022-10-08T14:48:28.951Z,5.18
2022-10-08T14:49:31.307Z,6.30
2022-10-08T14:50:33.803Z,5.40
2022-10-08T14:51:39.364Z,5.68
2022-10-08T14:52:44.582Z,6.35
2022-10-08T14:53:47.479Z,6.35
2022-10-08T14:54:49.851Z,7.07
2022-10-08T14:56:11.185Z,8.07
2022-10-08T14:58:20.219Z,7.82
2022-10-08T14:59:22.694Z,8.82
2022-10-08T15:00:25.261Z,7.85
2022-10-08T15:01:28.702Z,7.05
2022-10-08T15:02:31.281Z,6.45
2022-10-08T15:03:33.711Z,6.47
2022-10-08T15:04:36.402Z,5.78
2022-10-08T15:05:39.464Z,6.78